sensor_id;sensor_type;location;lat;lon;timestamp;temperature;humidity
21312;DHT22;18076;52.154;10.570;2022-08-11T00:01:27;18.40;94.30
21312;DHT22;18076;52.154;10.570;2022-08-11T00:03:57;18.30;94.30
21312;DHT22;18076;52.154;10.570;2022-08-11T00:08:52;18.20;94.50
21312;DHT22;18076;52.154;10.570;2022-08-11T00:11:18;18.10;94.50
21312;DHT22;18076;52.154;10.570;2022-08-11T00:13:45;17.90;95.00
21312;DHT22;18076;52.154;10.570;2022-08-11T00:16:13;17.90;95.10
21312;DHT22;18076;52.154;10.570;2022-08-11T00:18:43;17.80;95.30
21312;DHT22;18076;52.154;10.570;2022-08-11T00:21:09;17.70;95.50
21312;DHT22;18076;52.154;10.570;2022-08-11T00:23:46;17.60;95.60
21312;DHT22;18076;52.154;10.570;2022-08-11T00:26:16;17.50;95.80
21312;DHT22;18076;52.154;10.570;2022-08-11T00:28:42;17.40;95.90
21312;DHT22;18076;52.154;10.570;2022-08-11T00:31:09;17.20;96.30
21312;DHT22;18076;52.154;10.570;2022-08-11T00:33:40;17.20;96.50
21312;DHT22;18076;52.154;10.570;2022-08-11T00:36:07;17.20;96.70
21312;DHT22;18076;52.154;10.570;2022-08-11T00:38:34;17.20;96.90
21312;DHT22;18076;52.154;10.570;2022-08-11T00:41:22;17.20;97.00
21312;DHT22;18076;52.154;10.570;2022-08-11T00:46:28;17.20;97.30
21312;DHT22;18076;52.154;10.570;2022-08-11T00:49:07;17.10;97.40
21312;DHT22;18076;52.154;10.570;2022-08-11T00:51:39;17.10;97.80
21312;DHT22;18076;52.154;10.570;2022-08-11T01:01:31;17.10;98.70
21312;DHT22;18076;52.154;10.570;2022-08-11T01:06:50;17.10;99.20
21312;DHT22;18076;52.154;10.570;2022-08-11T01:30:51;16.90;99.90
21312;DHT22;18076;52.154;10.570;2022-08-11T01:52:38;16.50;99.90
21312;DHT22;18076;52.154;10.570;2022-08-11T01:55:27;16.30;99.90
21312;DHT22;18076;52.154;10.570;2022-08-11T01:58:04;16.10;99.90
21312;DHT22;18076;52.154;10.570;2022-08-11T02:00:35;15.80;99.90
21312;DHT22;18076;52.154;10.570;2022-08-11T02:03:15;15.70;99.90
21312;DHT22;18076;52.154;10.570;2022-08-11T02:09:01;15.60;99.90
21312;DHT22;18076;52.154;10.570;2022-08-11T02:11:32;15.60;99.90
21312;DHT22;18076;52.154;10.570;2022-08-11T02:22:34;15.60;99.90
21312;DHT22;18076;52.154;10.570;2022-08-11T02:28:06;15.60;99.90
21312;DHT22;18076;52.154;10.570;2022-08-11T02:30:40;15.70;99.90
21312;DHT22;18076;52.154;10.570;2022-08-11T02:33:30;15.60;99.90
21312;DHT22;18076;52.154;10.570;2022-08-11T02:36:05;15.60;99.90
21312;DHT22;18076;52.154;10.570;2022-08-11T02:41:25;15.60;99.90
21312;DHT22;18076;52.154;10.570;2022-08-11T02:44:26;15.60;99.90
21312;DHT22;18076;52.154;10.570;2022-08-11T02:49:44;15.50;99.90
21312;DHT22;18076;52.154;10.570;2022-08-11T02:53:05;15.40;99.90
21312;DHT22;18076;52.154;10.570;2022-08-11T03:00:08;15.20;99.90
21312;DHT22;18076;52.154;10.570;2022-08-11T03:15:27;15.20;99.90
21312;DHT22;18076;52.154;10.570;2022-08-11T03:18:28;15.20;99.90
21312;DHT22;18076;52.154;10.570;2022-08-11T03:21:09;15.30;99.90
21312;DHT22;18076;52.154;10.570;2022-08-11T03:23:38;15.30;99.90
21312;DHT22;18076;52.154;10.570;2022-08-11T03:33:51;15.20;99.90
21312;DHT22;18076;52.154;10.570;2022-08-11T03:41:37;15.10;99.90
21312;DHT22;18076;52.154;10.570;2022-08-11T03:46:35;15.00;99.90
21312;DHT22;18076;52.154;10.570;2022-08-11T03:51:52;14.90;99.90
21312;DHT22;18076;52.154;10.570;2022-08-11T03:54:37;14.90;99.90
21312;DHT22;18076;52.154;10.570;2022-08-11T04:04:53;14.80;99.90
21312;DHT22;18076;52.154;10.570;2022-08-11T04:28:47;14.40;99.90
21312;DHT22;18076;52.154;10.570;2022-08-11T04:31:23;14.40;99.90
21312;DHT22;18076;52.154;10.570;2022-08-11T04:34:11;14.30;99.90
21312;DHT22;18076;52.154;10.570;2022-08-11T04:42:11;14.20;99.90
21312;DHT22;18076;52.154;10.570;2022-08-11T04:45:05;14.20;99.90
21312;DHT22;18076;52.154;10.570;2022-08-11T04:51:00;14.20;99.90
21312;DHT22;18076;52.154;10.570;2022-08-11T04:53:59;14.30;99.90
21312;DHT22;18076;52.154;10.570;2022-08-11T04:56:46;14.30;99.90
21312;DHT22;18076;52.154;10.570;2022-08-11T04:59:36;14.40;99.90
21312;DHT22;18076;52.154;10.570;2022-08-11T05:13:04;14.70;99.90
21312;DHT22;18076;52.154;10.570;2022-08-11T05:15:53;14.80;99.90
21312;DHT22;18076;52.154;10.570;2022-08-11T05:18:46;14.90;99.90
21312;DHT22;18076;52.154;10.570;2022-08-11T05:21:31;15.00;99.90
21312;DHT22;18076;52.154;10.570;2022-08-11T05:24:20;15.10;99.90
21312;DHT22;18076;52.154;10.570;2022-08-11T05:27:06;15.20;99.90
21312;DHT22;18076;52.154;10.570;2022-08-11T05:29:55;15.30;99.90
21312;DHT22;18076;52.154;10.570;2022-08-11T05:32:41;15.50;99.90
21312;DHT22;18076;52.154;10.570;2022-08-11T05:35:32;15.60;99.90
21312;DHT22;18076;52.154;10.570;2022-08-11T05:38:01;15.70;99.90
21312;DHT22;18076;52.154;10.570;2022-08-11T05:40:49;15.90;99.90
21312;DHT22;18076;52.154;10.570;2022-08-11T05:43:34;16.10;99.90
21312;DHT22;18076;52.154;10.570;2022-08-11T05:46:22;16.20;99.90
21312;DHT22;18076;52.154;10.570;2022-08-11T05:49:07;16.40;99.90
21312;DHT22;18076;52.154;10.570;2022-08-11T05:51:52;16.50;99.90
21312;DHT22;18076;52.154;10.570;2022-08-11T05:54:36;16.70;99.90
21312;DHT22;18076;52.154;10.570;2022-08-11T05:57:27;16.80;99.90
21312;DHT22;18076;52.154;10.570;2022-08-11T06:00:01;17.00;99.90
21312;DHT22;18076;52.154;10.570;2022-08-11T06:02:27;17.20;99.90
21312;DHT22;18076;52.154;10.570;2022-08-11T06:04:54;17.40;99.90
21312;DHT22;18076;52.154;10.570;2022-08-11T06:07:25;17.60;99.90
21312;DHT22;18076;52.154;10.570;2022-08-11T06:09:51;17.80;99.90
21312;DHT22;18076;52.154;10.570;2022-08-11T06:12:19;18.10;99.90
21312;DHT22;18076;52.154;10.570;2022-08-11T06:14:45;18.30;99.90
21312;DHT22;18076;52.154;10.570;2022-08-11T06:17:13;18.50;99.90
21312;DHT22;18076;52.154;10.570;2022-08-11T06:19:46;18.70;99.90
21312;DHT22;18076;52.154;10.570;2022-08-11T06:22:11;18.90;99.90
21312;DHT22;18076;52.154;10.570;2022-08-11T06:24:41;19.20;99.90
21312;DHT22;18076;52.154;10.570;2022-08-11T06:27:18;19.50;99.90
21312;DHT22;18076;52.154;10.570;2022-08-11T06:29:45;19.80;99.90
21312;DHT22;18076;52.154;10.570;2022-08-11T06:32:11;20.10;99.90
21312;DHT22;18076;52.154;10.570;2022-08-11T06:37:18;20.40;99.90
21312;DHT22;18076;52.154;10.570;2022-08-11T06:39:53;20.40;99.90
21312;DHT22;18076;52.154;10.570;2022-08-11T06:45:02;20.90;99.90
21312;DHT22;18076;52.154;10.570;2022-08-11T06:47:29;21.10;99.90
21312;DHT22;18076;52.154;10.570;2022-08-11T06:49:55;21.40;99.90
21312;DHT22;18076;52.154;10.570;2022-08-11T06:52:40;21.50;99.90
21312;DHT22;18076;52.154;10.570;2022-08-11T06:55:10;21.60;99.90
21312;DHT22;18076;52.154;10.570;2022-08-11T06:57:36;21.90;99.90
21312;DHT22;18076;52.154;10.570;2022-08-11T07:00:22;22.10;99.90
21312;DHT22;18076;52.154;10.570;2022-08-11T07:03:12;22.50;99.90
21312;DHT22;18076;52.154;10.570;2022-08-11T07:05:44;22.70;99.90
21312;DHT22;18076;52.154;10.570;2022-08-11T07:13:57;23.10;99.90
21312;DHT22;18076;52.154;10.570;2022-08-11T07:16:42;23.20;99.90
21312;DHT22;18076;52.154;10.570;2022-08-11T07:19:09;23.40;99.90
21312;DHT22;18076;52.154;10.570;2022-08-11T07:21:55;23.70;99.90
21312;DHT22;18076;52.154;10.570;2022-08-11T07:24:41;23.90;99.90
21312;DHT22;18076;52.154;10.570;2022-08-11T07:27:32;24.20;99.90
21312;DHT22;18076;52.154;10.570;2022-08-11T07:30:18;24.40;99.90
21312;DHT22;18076;52.154;10.570;2022-08-11T07:32:47;24.60;99.90
21312;DHT22;18076;52.154;10.570;2022-08-11T07:35:19;24.80;99.90
21312;DHT22;18076;52.154;10.570;2022-08-11T07:37:46;24.90;99.90
21312;DHT22;18076;52.154;10.570;2022-08-11T07:40:19;25.00;99.90
21312;DHT22;18076;52.154;10.570;2022-08-11T07:42:45;25.10;99.70
21312;DHT22;18076;52.154;10.570;2022-08-11T07:45:11;25.00;99.40
21312;DHT22;18076;52.154;10.570;2022-08-11T07:47:56;25.10;99.60
21312;DHT22;18076;52.154;10.570;2022-08-11T07:50:42;25.20;98.90
21312;DHT22;18076;52.154;10.570;2022-08-11T07:53:27;25.30;98.60
21312;DHT22;18076;52.154;10.570;2022-08-11T07:55:57;25.40;98.20
21312;DHT22;18076;52.154;10.570;2022-08-11T07:58:24;25.60;98.00
21312;DHT22;18076;52.154;10.570;2022-08-11T08:01:10;25.90;98.10
21312;DHT22;18076;52.154;10.570;2022-08-11T08:03:54;26.10;97.20
21312;DHT22;18076;52.154;10.570;2022-08-11T08:06:41;26.50;97.30
21312;DHT22;18076;52.154;10.570;2022-08-11T08:09:25;26.80;96.30
21312;DHT22;18076;52.154;10.570;2022-08-11T08:12:09;27.10;95.90
21312;DHT22;18076;52.154;10.570;2022-08-11T08:14:55;27.50;95.00
21312;DHT22;18076;52.154;10.570;2022-08-11T08:17:40;27.70;93.70
21312;DHT22;18076;52.154;10.570;2022-08-11T08:20:17;27.80;93.60
21312;DHT22;18076;52.154;10.570;2022-08-11T08:22:45;28.10;93.30
21312;DHT22;18076;52.154;10.570;2022-08-11T08:25:12;28.40;92.20
21312;DHT22;18076;52.154;10.570;2022-08-11T08:27:38;28.80;91.60
21312;DHT22;18076;52.154;10.570;2022-08-11T08:30:04;28.90;89.40
21312;DHT22;18076;52.154;10.570;2022-08-11T08:32:49;28.90;89.50
21312;DHT22;18076;52.154;10.570;2022-08-11T08:35:15;29.20;88.70
21312;DHT22;18076;52.154;10.570;2022-08-11T08:37:41;29.50;86.80
21312;DHT22;18076;52.154;10.570;2022-08-11T08:40:07;29.80;85.90
21312;DHT22;18076;52.154;10.570;2022-08-11T08:42:36;30.10;84.80
21312;DHT22;18076;52.154;10.570;2022-08-11T08:45:07;30.20;83.00
21312;DHT22;18076;52.154;10.570;2022-08-11T08:47:34;30.20;82.40
21312;DHT22;18076;52.154;10.570;2022-08-11T08:50:02;30.20;82.50
21312;DHT22;18076;52.154;10.570;2022-08-11T08:52:32;30.20;82.60
21312;DHT22;18076;52.154;10.570;2022-08-11T08:55:00;30.40;81.70
21312;DHT22;18076;52.154;10.570;2022-08-11T08:57:27;30.40;79.90
21312;DHT22;18076;52.154;10.570;2022-08-11T08:59:53;30.50;81.50
21312;DHT22;18076;52.154;10.570;2022-08-11T09:02:20;30.80;81.40
21312;DHT22;18076;52.154;10.570;2022-08-11T09:04:48;30.70;81.00
21312;DHT22;18076;52.154;10.570;2022-08-11T09:07:17;30.90;81.80
21312;DHT22;18076;52.154;10.570;2022-08-11T09:09:46;31.30;80.20
21312;DHT22;18076;52.154;10.570;2022-08-11T09:12:12;31.60;79.90
21312;DHT22;18076;52.154;10.570;2022-08-11T09:14:39;31.80;78.20
21312;DHT22;18076;52.154;10.570;2022-08-11T09:17:24;31.90;76.30
21312;DHT22;18076;52.154;10.570;2022-08-11T09:19:56;32.20;76.70
21312;DHT22;18076;52.154;10.570;2022-08-11T09:22:32;32.30;75.40
21312;DHT22;18076;52.154;10.570;2022-08-11T09:25:17;32.40;75.60
21312;DHT22;18076;52.154;10.570;2022-08-11T09:28:02;32.60;74.80
21312;DHT22;18076;52.154;10.570;2022-08-11T09:30:29;32.70;71.90
21312;DHT22;18076;52.154;10.570;2022-08-11T09:32:55;33.00;72.60
21312;DHT22;18076;52.154;10.570;2022-08-11T09:35:28;33.20;71.10
21312;DHT22;18076;52.154;10.570;2022-08-11T09:37:54;33.00;70.10
21312;DHT22;18076;52.154;10.570;2022-08-11T09:40:47;32.90;70.50
21312;DHT22;18076;52.154;10.570;2022-08-11T09:43:14;32.70;69.10
21312;DHT22;18076;52.154;10.570;2022-08-11T09:46:00;33.00;69.70
21312;DHT22;18076;52.154;10.570;2022-08-11T09:48:26;33.00;66.70
21312;DHT22;18076;52.154;10.570;2022-08-11T09:50:53;33.00;65.60
21312;DHT22;18076;52.154;10.570;2022-08-11T09:53:20;33.10;66.80
21312;DHT22;18076;52.154;10.570;2022-08-11T09:55:46;33.40;66.30
21312;DHT22;18076;52.154;10.570;2022-08-11T09:58:12;33.50;64.70
21312;DHT22;18076;52.154;10.570;2022-08-11T10:00:39;33.40;63.60
21312;DHT22;18076;52.154;10.570;2022-08-11T10:03:05;33.30;63.30
21312;DHT22;18076;52.154;10.570;2022-08-11T10:05:32;33.50;62.50
21312;DHT22;18076;52.154;10.570;2022-08-11T10:08:16;33.60;60.70
21312;DHT22;18076;52.154;10.570;2022-08-11T10:10:45;33.50;59.60
21312;DHT22;18076;52.154;10.570;2022-08-11T10:13:19;33.40;59.50
21312;DHT22;18076;52.154;10.570;2022-08-11T10:15:46;33.20;59.40
21312;DHT22;18076;52.154;10.570;2022-08-11T10:18:20;32.80;59.40
21312;DHT22;18076;52.154;10.570;2022-08-11T10:23:47;32.90;59.70
21312;DHT22;18076;52.154;10.570;2022-08-11T10:26:53;32.40;59.70
21312;DHT22;18076;52.154;10.570;2022-08-11T10:32:28;32.60;59.80
21312;DHT22;18076;52.154;10.570;2022-08-11T10:35:11;32.40;59.60
21312;DHT22;18076;52.154;10.570;2022-08-11T10:37:54;32.70;60.30
21312;DHT22;18076;52.154;10.570;2022-08-11T10:40:37;32.80;60.40
21312;DHT22;18076;52.154;10.570;2022-08-11T10:43:26;33.20;60.10
21312;DHT22;18076;52.154;10.570;2022-08-11T10:45:52;33.30;57.70
21312;DHT22;18076;52.154;10.570;2022-08-11T10:48:36;33.20;58.70
21312;DHT22;18076;52.154;10.570;2022-08-11T10:51:02;33.30;58.40
21312;DHT22;18076;52.154;10.570;2022-08-11T10:53:47;33.10;58.40
21312;DHT22;18076;52.154;10.570;2022-08-11T10:56:33;33.20;59.00
21312;DHT22;18076;52.154;10.570;2022-08-11T10:59:17;33.00;57.70
21312;DHT22;18076;52.154;10.570;2022-08-11T11:01:43;33.20;58.30
21312;DHT22;18076;52.154;10.570;2022-08-11T11:04:13;33.40;58.20
21312;DHT22;18076;52.154;10.570;2022-08-11T11:06:45;33.40;57.70
21312;DHT22;18076;52.154;10.570;2022-08-11T11:11:49;33.00;58.20
21312;DHT22;18076;52.154;10.570;2022-08-11T11:14:35;33.10;58.10
21312;DHT22;18076;52.154;10.570;2022-08-11T11:17:31;33.30;57.20
21312;DHT22;18076;52.154;10.570;2022-08-11T11:20:20;33.50;57.20
21312;DHT22;18076;52.154;10.570;2022-08-11T11:22:48;33.70;57.10
21312;DHT22;18076;52.154;10.570;2022-08-11T11:25:36;33.90;58.00
21312;DHT22;18076;52.154;10.570;2022-08-11T11:28:17;33.90;57.10
21312;DHT22;18076;52.154;10.570;2022-08-11T11:30:59;33.90;56.60
21312;DHT22;18076;52.154;10.570;2022-08-11T11:36:18;33.90;56.60
21312;DHT22;18076;52.154;10.570;2022-08-11T11:38:49;33.70;56.60
21312;DHT22;18076;52.154;10.570;2022-08-11T11:41:15;33.20;56.20
21312;DHT22;18076;52.154;10.570;2022-08-11T11:43:54;33.10;56.80
21312;DHT22;18076;52.154;10.570;2022-08-11T11:46:21;33.20;56.20
21312;DHT22;18076;52.154;10.570;2022-08-11T11:48:49;32.90;56.50
21312;DHT22;18076;52.154;10.570;2022-08-11T11:51:14;32.60;56.20
21312;DHT22;18076;52.154;10.570;2022-08-11T11:53:43;32.50;56.90
21312;DHT22;18076;52.154;10.570;2022-08-11T11:56:10;32.80;57.00
21312;DHT22;18076;52.154;10.570;2022-08-11T11:58:36;33.20;57.10
21312;DHT22;18076;52.154;10.570;2022-08-11T12:01:21;33.70;56.30
21312;DHT22;18076;52.154;10.570;2022-08-11T12:03:50;33.50;55.50
21312;DHT22;18076;52.154;10.570;2022-08-11T12:06:16;33.50;55.60
21312;DHT22;18076;52.154;10.570;2022-08-11T12:08:42;33.60;55.80
21312;DHT22;18076;52.154;10.570;2022-08-11T12:11:09;33.60;56.20
21312;DHT22;18076;52.154;10.570;2022-08-11T12:13:55;33.60;55.40
21312;DHT22;18076;52.154;10.570;2022-08-11T12:16:21;33.70;56.00
21312;DHT22;18076;52.154;10.570;2022-08-11T12:18:57;34.00;55.60
21312;DHT22;18076;52.154;10.570;2022-08-11T12:21:23;34.20;55.80
21312;DHT22;18076;52.154;10.570;2022-08-11T12:23:50;34.40;54.30
21312;DHT22;18076;52.154;10.570;2022-08-11T12:26:35;34.20;54.40
21312;DHT22;18076;52.154;10.570;2022-08-11T12:29:24;34.20;54.50
21312;DHT22;18076;52.154;10.570;2022-08-11T12:31:52;34.20;54.60
21312;DHT22;18076;52.154;10.570;2022-08-11T12:34:18;34.30;54.10
21312;DHT22;18076;52.154;10.570;2022-08-11T12:36:53;34.50;54.00
21312;DHT22;18076;52.154;10.570;2022-08-11T12:39:21;34.30;54.30
21312;DHT22;18076;52.154;10.570;2022-08-11T12:42:10;34.40;53.00
21312;DHT22;18076;52.154;10.570;2022-08-11T12:44:57;34.40;53.80
21312;DHT22;18076;52.154;10.570;2022-08-11T12:47:49;34.40;52.80
21312;DHT22;18076;52.154;10.570;2022-08-11T12:50:34;34.10;54.40
21312;DHT22;18076;52.154;10.570;2022-08-11T12:53:26;34.10;54.30
21312;DHT22;18076;52.154;10.570;2022-08-11T12:55:53;34.10;53.40
21312;DHT22;18076;52.154;10.570;2022-08-11T12:58:38;34.10;53.00
21312;DHT22;18076;52.154;10.570;2022-08-11T13:01:04;34.00;53.00
21312;DHT22;18076;52.154;10.570;2022-08-11T13:03:49;33.80;52.60
21312;DHT22;18076;52.154;10.570;2022-08-11T13:06:33;33.50;52.40
21312;DHT22;18076;52.154;10.570;2022-08-11T13:08:59;33.30;52.50
21312;DHT22;18076;52.154;10.570;2022-08-11T13:11:25;33.20;52.30
21312;DHT22;18076;52.154;10.570;2022-08-11T13:14:09;33.10;51.90
21312;DHT22;18076;52.154;10.570;2022-08-11T13:16:35;33.20;52.50
21312;DHT22;18076;52.154;10.570;2022-08-11T13:19:20;33.40;52.50
21312;DHT22;18076;52.154;10.570;2022-08-11T13:21:46;33.80;52.40
21312;DHT22;18076;52.154;10.570;2022-08-11T13:24:13;34.10;51.30
21312;DHT22;18076;52.154;10.570;2022-08-11T13:26:39;34.00;51.60
21312;DHT22;18076;52.154;10.570;2022-08-11T13:29:04;34.30;50.90
21312;DHT22;18076;52.154;10.570;2022-08-11T13:31:31;34.40;51.00
21312;DHT22;18076;52.154;10.570;2022-08-11T13:33:57;34.50;51.60
21312;DHT22;18076;52.154;10.570;2022-08-11T13:36:23;34.90;51.80
21312;DHT22;18076;52.154;10.570;2022-08-11T13:38:54;35.00;51.00
21312;DHT22;18076;52.154;10.570;2022-08-11T13:41:19;35.00;50.90
21312;DHT22;18076;52.154;10.570;2022-08-11T13:44:04;34.90;51.10
21312;DHT22;18076;52.154;10.570;2022-08-11T13:46:30;34.50;50.10
21312;DHT22;18076;52.154;10.570;2022-08-11T13:48:58;34.50;50.90
21312;DHT22;18076;52.154;10.570;2022-08-11T13:51:24;34.50;51.20
21312;DHT22;18076;52.154;10.570;2022-08-11T13:53:57;34.40;50.90
21312;DHT22;18076;52.154;10.570;2022-08-11T13:56:23;34.40;51.10
21312;DHT22;18076;52.154;10.570;2022-08-11T13:58:50;34.50;50.00
21312;DHT22;18076;52.154;10.570;2022-08-11T14:01:17;34.30;49.50
21312;DHT22;18076;52.154;10.570;2022-08-11T14:03:44;34.30;49.00
21312;DHT22;18076;52.154;10.570;2022-08-11T14:06:09;34.30;48.30
21312;DHT22;18076;52.154;10.570;2022-08-11T14:08:36;34.00;49.40
21312;DHT22;18076;52.154;10.570;2022-08-11T14:11:03;33.60;50.00
21312;DHT22;18076;52.154;10.570;2022-08-11T14:13:48;33.30;50.10
21312;DHT22;18076;52.154;10.570;2022-08-11T14:16:18;33.10;50.60
21312;DHT22;18076;52.154;10.570;2022-08-11T14:18:45;33.10;51.00
21312;DHT22;18076;52.154;10.570;2022-08-11T14:21:12;33.30;51.10
21312;DHT22;18076;52.154;10.570;2022-08-11T14:23:57;33.20;50.90
21312;DHT22;18076;52.154;10.570;2022-08-11T14:26:24;33.10;50.80
21312;DHT22;18076;52.154;10.570;2022-08-11T14:29:00;33.00;51.10
21312;DHT22;18076;52.154;10.570;2022-08-11T14:31:27;33.20;51.50
21312;DHT22;18076;52.154;10.570;2022-08-11T14:33:54;33.10;51.10
21312;DHT22;18076;52.154;10.570;2022-08-11T14:36:24;33.10;51.60
21312;DHT22;18076;52.154;10.570;2022-08-11T14:38:50;33.10;51.70
21312;DHT22;18076;52.154;10.570;2022-08-11T14:41:18;33.30;51.60
21312;DHT22;18076;52.154;10.570;2022-08-11T14:44:02;33.40;51.50
21312;DHT22;18076;52.154;10.570;2022-08-11T14:46:47;33.80;51.00
21312;DHT22;18076;52.154;10.570;2022-08-11T14:49:28;34.00;51.50
21312;DHT22;18076;52.154;10.570;2022-08-11T14:51:55;33.80;51.30
21312;DHT22;18076;52.154;10.570;2022-08-11T14:54:25;33.80;51.50
21312;DHT22;18076;52.154;10.570;2022-08-11T14:57:11;33.80;51.90
21312;DHT22;18076;52.154;10.570;2022-08-11T14:59:37;33.80;52.10
21312;DHT22;18076;52.154;10.570;2022-08-11T15:02:03;33.50;52.20
21312;DHT22;18076;52.154;10.570;2022-08-11T15:04:48;33.50;52.50
21312;DHT22;18076;52.154;10.570;2022-08-11T15:07:14;33.30;52.20
21312;DHT22;18076;52.154;10.570;2022-08-11T15:09:40;33.10;51.50
21312;DHT22;18076;52.154;10.570;2022-08-11T15:12:11;33.10;52.70
21312;DHT22;18076;52.154;10.570;2022-08-11T15:14:43;33.20;53.00
21312;DHT22;18076;52.154;10.570;2022-08-11T15:17:29;33.40;52.90
21312;DHT22;18076;52.154;10.570;2022-08-11T15:19:57;33.50;53.40
21312;DHT22;18076;52.154;10.570;2022-08-11T15:22:43;33.40;53.60
21312;DHT22;18076;52.154;10.570;2022-08-11T15:25:27;33.40;52.40
21312;DHT22;18076;52.154;10.570;2022-08-11T15:27:53;33.30;52.40
21312;DHT22;18076;52.154;10.570;2022-08-11T15:30:37;33.40;52.80
21312;DHT22;18076;52.154;10.570;2022-08-11T15:33:22;33.40;52.40
21312;DHT22;18076;52.154;10.570;2022-08-11T15:36:08;33.50;51.50
21312;DHT22;18076;52.154;10.570;2022-08-11T15:38:54;33.60;52.50
21312;DHT22;18076;52.154;10.570;2022-08-11T15:41:22;33.60;52.90
21312;DHT22;18076;52.154;10.570;2022-08-11T15:44:11;33.40;52.20
21312;DHT22;18076;52.154;10.570;2022-08-11T15:46:56;33.10;52.30
21312;DHT22;18076;52.154;10.570;2022-08-11T15:49:43;33.00;52.90
21312;DHT22;18076;52.154;10.570;2022-08-11T15:52:15;32.90;52.60
21312;DHT22;18076;52.154;10.570;2022-08-11T15:54:42;32.70;52.20
21312;DHT22;18076;52.154;10.570;2022-08-11T15:57:10;32.70;52.80
21312;DHT22;18076;52.154;10.570;2022-08-11T15:59:59;32.70;53.20
21312;DHT22;18076;52.154;10.570;2022-08-11T16:02:43;32.80;52.70
21312;DHT22;18076;52.154;10.570;2022-08-11T16:05:19;32.90;52.70
21312;DHT22;18076;52.154;10.570;2022-08-11T16:07:46;32.90;52.60
21312;DHT22;18076;52.154;10.570;2022-08-11T16:10:14;32.60;52.20
21312;DHT22;18076;52.154;10.570;2022-08-11T16:12:59;32.50;52.30
21312;DHT22;18076;52.154;10.570;2022-08-11T16:15:28;32.60;52.20
21312;DHT22;18076;52.154;10.570;2022-08-11T16:18:12;32.60;52.80
21312;DHT22;18076;52.154;10.570;2022-08-11T16:20:39;32.30;52.50
21312;DHT22;18076;52.154;10.570;2022-08-11T16:23:05;32.20;52.80
21312;DHT22;18076;52.154;10.570;2022-08-11T16:25:33;32.10;53.00
21312;DHT22;18076;52.154;10.570;2022-08-11T16:27:59;32.00;52.90
21312;DHT22;18076;52.154;10.570;2022-08-11T16:30:39;31.90;52.80
21312;DHT22;18076;52.154;10.570;2022-08-11T16:33:05;31.90;53.30
21312;DHT22;18076;52.154;10.570;2022-08-11T16:35:33;31.90;53.30
21312;DHT22;18076;52.154;10.570;2022-08-11T16:38:21;31.80;53.10
21312;DHT22;18076;52.154;10.570;2022-08-11T16:41:08;31.80;53.30
21312;DHT22;18076;52.154;10.570;2022-08-11T16:43:37;31.70;53.00
21312;DHT22;18076;52.154;10.570;2022-08-11T16:46:22;31.60;53.00
21312;DHT22;18076;52.154;10.570;2022-08-11T16:49:12;31.60;53.60
21312;DHT22;18076;52.154;10.570;2022-08-11T16:51:39;31.30;53.00
21312;DHT22;18076;52.154;10.570;2022-08-11T16:54:05;31.30;53.70
21312;DHT22;18076;52.154;10.570;2022-08-11T16:56:48;31.20;53.40
21312;DHT22;18076;52.154;10.570;2022-08-11T16:59:16;31.10;53.40
21312;DHT22;18076;52.154;10.570;2022-08-11T17:07:12;30.90;53.60
21312;DHT22;18076;52.154;10.570;2022-08-11T17:09:58;30.70;53.70
21312;DHT22;18076;52.154;10.570;2022-08-11T17:12:43;30.60;53.60
21312;DHT22;18076;52.154;10.570;2022-08-11T17:15:31;30.60;54.00
21312;DHT22;18076;52.154;10.570;2022-08-11T17:18:15;30.50;53.90
21312;DHT22;18076;52.154;10.570;2022-08-11T17:21:01;30.40;54.10
21312;DHT22;18076;52.154;10.570;2022-08-11T17:23:28;30.30;54.30
21312;DHT22;18076;52.154;10.570;2022-08-11T17:26:24;30.20;54.60
21312;DHT22;18076;52.154;10.570;2022-08-11T17:28:53;30.00;54.90
21312;DHT22;18076;52.154;10.570;2022-08-11T17:31:20;29.80;54.90
21312;DHT22;18076;52.154;10.570;2022-08-11T17:34:06;29.70;55.50
21312;DHT22;18076;52.154;10.570;2022-08-11T17:36:51;29.50;55.30
21312;DHT22;18076;52.154;10.570;2022-08-11T17:39:17;29.40;55.80
21312;DHT22;18076;52.154;10.570;2022-08-11T17:41:43;29.40;56.00
21312;DHT22;18076;52.154;10.570;2022-08-11T17:44:28;29.50;55.80
21312;DHT22;18076;52.154;10.570;2022-08-11T17:47:13;29.50;56.10
21312;DHT22;18076;52.154;10.570;2022-08-11T17:49:58;29.40;55.80
21312;DHT22;18076;52.154;10.570;2022-08-11T17:52:25;29.30;56.00
21312;DHT22;18076;52.154;10.570;2022-08-11T17:55:09;29.20;56.30
21312;DHT22;18076;52.154;10.570;2022-08-11T17:57:54;29.10;56.60
21312;DHT22;18076;52.154;10.570;2022-08-11T18:00:39;28.80;56.90
21312;DHT22;18076;52.154;10.570;2022-08-11T18:03:04;28.70;57.30
21312;DHT22;18076;52.154;10.570;2022-08-11T18:05:49;28.70;57.10
21312;DHT22;18076;52.154;10.570;2022-08-11T18:08:15;28.50;57.10
21312;DHT22;18076;52.154;10.570;2022-08-11T18:11:00;28.40;57.40
21312;DHT22;18076;52.154;10.570;2022-08-11T18:13:45;28.40;57.50
21312;DHT22;18076;52.154;10.570;2022-08-11T18:16:30;28.20;57.70
21312;DHT22;18076;52.154;10.570;2022-08-11T18:19:14;28.20;58.00
21312;DHT22;18076;52.154;10.570;2022-08-11T18:22:04;28.10;58.30
21312;DHT22;18076;52.154;10.570;2022-08-11T18:24:50;28.00;58.50
21312;DHT22;18076;52.154;10.570;2022-08-11T18:27:37;27.70;58.70
21312;DHT22;18076;52.154;10.570;2022-08-11T18:30:21;27.60;59.40
21312;DHT22;18076;52.154;10.570;2022-08-11T18:33:09;27.50;60.00
21312;DHT22;18076;52.154;10.570;2022-08-11T18:35:57;27.20;60.10
21312;DHT22;18076;52.154;10.570;2022-08-11T18:38:41;27.10;60.20
21312;DHT22;18076;52.154;10.570;2022-08-11T18:41:28;27.00;60.40
21312;DHT22;18076;52.154;10.570;2022-08-11T18:44:14;26.80;60.50
21312;DHT22;18076;52.154;10.570;2022-08-11T18:47:01;26.50;60.90
21312;DHT22;18076;52.154;10.570;2022-08-11T18:49:45;26.40;61.90
21312;DHT22;18076;52.154;10.570;2022-08-11T18:52:31;26.30;61.80
21312;DHT22;18076;52.154;10.570;2022-08-11T18:55:17;26.20;62.00
21312;DHT22;18076;52.154;10.570;2022-08-11T18:58:02;26.10;62.50
21312;DHT22;18076;52.154;10.570;2022-08-11T19:00:48;26.10;62.30
21312;DHT22;18076;52.154;10.570;2022-08-11T19:03:32;25.90;62.10
21312;DHT22;18076;52.154;10.570;2022-08-11T19:06:18;25.80;62.80
21312;DHT22;18076;52.154;10.570;2022-08-11T19:09:04;25.70;63.00
21312;DHT22;18076;52.154;10.570;2022-08-11T19:11:49;25.50;63.10
21312;DHT22;18076;52.154;10.570;2022-08-11T19:14:34;25.40;63.10
21312;DHT22;18076;52.154;10.570;2022-08-11T19:17:19;25.20;64.00